sensor_id;sensor_type;location;lat;lon;timestamp;P1;durP1;ratioP1;P2;durP2;ratioP2
16177;SDS011;8195;51.220;9.746;2023-05-03T00:03:07;7.03;;;6.33;;
16177;SDS011;8195;51.220;9.746;2023-05-03T00:13:28;6.83;;;6.20;;
16177;SDS011;8195;51.220;9.746;2023-05-03T00:23:49;7.03;;;6.10;;
16177;SDS011;8195;51.220;9.746;2023-05-03T00:34:10;7.07;;;6.20;;
16177;SDS011;8195;51.220;9.746;2023-05-03T00:44:31;6.43;;;5.73;;
16177;SDS011;8195;51.220;9.746;2023-05-03T00:54:52;7.40;;;6.23;;
16177;SDS011;8195;51.220;9.746;2023-05-03T01:05:13;7.57;;;5.97;;
16177;SDS011;8195;51.220;9.746;2023-05-03T01:26:26;7.60;;;5.83;;
16177;SDS011;8195;51.220;9.746;2023-05-03T01:36:47;7.27;;;6.30;;
16177;SDS011;8195;51.220;9.746;2023-05-03T01:47:09;6.60;;;6.00;;
16177;SDS011;8195;51.220;9.746;2023-05-03T01:57:30;7.00;;;6.30;;
16177;SDS011;8195;51.220;9.746;2023-05-03T02:07:51;7.83;;;6.63;;
16177;SDS011;8195;51.220;9.746;2023-05-03T02:18:12;7.20;;;6.27;;
16177;SDS011;8195;51.220;9.746;2023-05-03T02:28:33;8.90;;;7.07;;
16177;SDS011;8195;51.220;9.746;2023-05-03T02:38:54;9.50;;;7.90;;
16177;SDS011;8195;51.220;9.746;2023-05-03T02:49:14;9.27;;;7.60;;
16177;SDS011;8195;51.220;9.746;2023-05-03T02:59:35;8.13;;;6.53;;
16177;SDS011;8195;51.220;9.746;2023-05-03T03:09:56;7.73;;;6.93;;
16177;SDS011;8195;51.220;9.746;2023-05-03T03:20:17;9.03;;;7.40;;
16177;SDS011;8195;51.220;9.746;2023-05-03T03:30:38;7.90;;;7.10;;
16177;SDS011;8195;51.220;9.746;2023-05-03T03:40:59;7.53;;;6.70;;
16177;SDS011;8195;51.220;9.746;2023-05-03T03:51:20;8.17;;;6.97;;
16177;SDS011;8195;51.220;9.746;2023-05-03T04:01:41;8.93;;;7.37;;
16177;SDS011;8195;51.220;9.746;2023-05-03T04:12:02;10.23;;;6.87;;
16177;SDS011;8195;51.220;9.746;2023-05-03T04:22:23;11.10;;;7.10;;
16177;SDS011;8195;51.220;9.746;2023-05-03T04:32:43;10.70;;;8.03;;
16177;SDS011;8195;51.220;9.746;2023-05-03T04:43:04;9.90;;;8.07;;
16177;SDS011;8195;51.220;9.746;2023-05-03T04:53:25;8.17;;;6.50;;
16177;SDS011;8195;51.220;9.746;2023-05-03T05:03:46;8.67;;;7.30;;
16177;SDS011;8195;51.220;9.746;2023-05-03T05:14:07;9.33;;;6.53;;
16177;SDS011;8195;51.220;9.746;2023-05-03T05:24:28;7.17;;;6.30;;
16177;SDS011;8195;51.220;9.746;2023-05-03T05:34:49;6.30;;;5.67;;
16177;SDS011;8195;51.220;9.746;2023-05-03T05:45:10;6.47;;;4.80;;
16177;SDS011;8195;51.220;9.746;2023-05-03T05:55:40;6.00;;;4.80;;
16177;SDS011;8195;51.220;9.746;2023-05-03T06:06:04;5.13;;;4.53;;
16177;SDS011;8195;51.220;9.746;2023-05-03T06:16:25;4.77;;;4.33;;
16177;SDS011;8195;51.220;9.746;2023-05-03T06:27:06;4.70;;;4.17;;
16177;SDS011;8195;51.220;9.746;2023-05-03T06:37:30;5.17;;;3.77;;
16177;SDS011;8195;51.220;9.746;2023-05-03T06:48:10;4.57;;;4.13;;
16177;SDS011;8195;51.220;9.746;2023-05-03T06:58:48;5.77;;;3.63;;
16177;SDS011;8195;51.220;9.746;2023-05-03T07:09:09;4.70;;;3.87;;
16177;SDS011;8195;51.220;9.746;2023-05-03T07:19:42;4.00;;;3.40;;
16177;SDS011;8195;51.220;9.746;2023-05-03T07:30:22;4.00;;;3.60;;
16177;SDS011;8195;51.220;9.746;2023-05-03T07:41:06;4.00;;;3.40;;
16177;SDS011;8195;51.220;9.746;2023-05-03T07:51:27;4.20;;;3.50;;
16177;SDS011;8195;51.220;9.746;2023-05-03T08:01:48;4.00;;;3.60;;
16177;SDS011;8195;51.220;9.746;2023-05-03T08:12:08;4.30;;;3.90;;
16177;SDS011;8195;51.220;9.746;2023-05-03T08:22:29;4.20;;;3.80;;
16177;SDS011;8195;51.220;9.746;2023-05-03T08:43:46;4.27;;;3.87;;
16177;SDS011;8195;51.220;9.746;2023-05-03T08:54:28;4.27;;;3.27;;
16177;SDS011;8195;51.220;9.746;2023-05-03T09:04:49;3.63;;;3.33;;
16177;SDS011;8195;51.220;9.746;2023-05-03T09:15:15;4.10;;;3.70;;
16177;SDS011;8195;51.220;9.746;2023-05-03T09:25:41;4.27;;;3.20;;
16177;SDS011;8195;51.220;9.746;2023-05-03T09:36:07;3.87;;;3.30;;
16177;SDS011;8195;51.220;9.746;2023-05-03T09:46:28;4.17;;;3.70;;
16177;SDS011;8195;51.220;9.746;2023-05-03T09:56:49;3.60;;;3.30;;
16177;SDS011;8195;51.220;9.746;2023-05-03T10:07:12;5.50;;;3.70;;
16177;SDS011;8195;51.220;9.746;2023-05-03T10:17:36;5.87;;;3.30;;
16177;SDS011;8195;51.220;9.746;2023-05-03T10:28:02;3.70;;;3.30;;
16177;SDS011;8195;51.220;9.746;2023-05-03T10:38:25;4.00;;;3.70;;
16177;SDS011;8195;51.220;9.746;2023-05-03T10:48:47;4.50;;;4.07;;
16177;SDS011;8195;51.220;9.746;2023-05-03T10:59:46;3.87;;;3.40;;
16177;SDS011;8195;51.220;9.746;2023-05-03T11:10:18;4.27;;;3.83;;
16177;SDS011;8195;51.220;9.746;2023-05-03T11:20:40;4.43;;;4.03;;
16177;SDS011;8195;51.220;9.746;2023-05-03T11:31:01;3.47;;;3.27;;
16177;SDS011;8195;51.220;9.746;2023-05-03T11:41:22;3.50;;;3.23;;
16177;SDS011;8195;51.220;9.746;2023-05-03T11:51:43;3.80;;;3.50;;
16177;SDS011;8195;51.220;9.746;2023-05-03T12:02:05;4.07;;;3.47;;
16177;SDS011;8195;51.220;9.746;2023-05-03T12:12:28;3.57;;;3.10;;
16177;SDS011;8195;51.220;9.746;2023-05-03T12:22:49;5.13;;;3.37;;
16177;SDS011;8195;51.220;9.746;2023-05-03T12:33:15;4.37;;;3.97;;
16177;SDS011;8195;51.220;9.746;2023-05-03T12:43:36;4.80;;;3.83;;
16177;SDS011;8195;51.220;9.746;2023-05-03T12:53:57;4.70;;;3.80;;
16177;SDS011;8195;51.220;9.746;2023-05-03T13:04:18;4.90;;;3.97;;
16177;SDS011;8195;51.220;9.746;2023-05-03T13:14:39;3.53;;;3.23;;
16177;SDS011;8195;51.220;9.746;2023-05-03T13:25:00;4.03;;;3.73;;
16177;SDS011;8195;51.220;9.746;2023-05-03T13:35:21;3.63;;;3.33;;
16177;SDS011;8195;51.220;9.746;2023-05-03T13:45:42;4.67;;;3.13;;
16177;SDS011;8195;51.220;9.746;2023-05-03T13:56:04;3.60;;;3.30;;
16177;SDS011;8195;51.220;9.746;2023-05-03T14:06:25;6.47;;;3.70;;
16177;SDS011;8195;51.220;9.746;2023-05-03T14:16:46;4.27;;;3.27;;
16177;SDS011;8195;51.220;9.746;2023-05-03T14:27:28;4.60;;;3.20;;
16177;SDS011;8195;51.220;9.746;2023-05-03T14:48:33;4.03;;;3.37;;
16177;SDS011;8195;51.220;9.746;2023-05-03T14:58:59;4.80;;;3.40;;
16177;SDS011;8195;51.220;9.746;2023-05-03T15:31:12;4.70;;;4.20;;
16177;SDS011;8195;51.220;9.746;2023-05-03T15:52:34;5.33;;;3.97;;
16177;SDS011;8195;51.220;9.746;2023-05-03T16:03:16;4.30;;;3.90;;
16177;SDS011;8195;51.220;9.746;2023-05-03T16:13:37;4.87;;;3.80;;
16177;SDS011;8195;51.220;9.746;2023-05-03T16:24:15;4.00;;;3.70;;
16177;SDS011;8195;51.220;9.746;2023-05-03T17:07:10;5.10;;;3.97;;
16177;SDS011;8195;51.220;9.746;2023-05-03T17:17:47;3.90;;;3.50;;
16177;SDS011;8195;51.220;9.746;2023-05-03T17:28:08;4.70;;;3.70;;
16177;SDS011;8195;51.220;9.746;2023-05-03T17:38:29;4.83;;;3.67;;
16177;SDS011;8195;51.220;9.746;2023-05-03T17:48:51;3.83;;;3.50;;
16177;SDS011;8195;51.220;9.746;2023-05-03T17:59:12;4.27;;;3.80;;
16177;SDS011;8195;51.220;9.746;2023-05-03T18:09:33;4.20;;;3.50;;
16177;SDS011;8195;51.220;9.746;2023-05-03T18:19:54;4.40;;;3.43;;
16177;SDS011;8195;51.220;9.746;2023-05-03T18:30:15;4.33;;;3.93;;
16177;SDS011;8195;51.220;9.746;2023-05-03T18:40:36;4.40;;;3.73;;
16177;SDS011;8195;51.220;9.746;2023-05-03T18:50:57;5.40;;;3.93;;
16177;SDS011;8195;51.220;9.746;2023-05-03T19:01:18;4.87;;;4.10;;
16177;SDS011;8195;51.220;9.746;2023-05-03T19:11:39;4.20;;;3.40;;
16177;SDS011;8195;51.220;9.746;2023-05-03T19:22:01;4.90;;;3.83;;
16177;SDS011;8195;51.220;9.746;2023-05-03T19:32:22;3.73;;;3.43;;
16177;SDS011;8195;51.220;9.746;2023-05-03T19:42:43;5.23;;;4.03;;
16177;SDS011;8195;51.220;9.746;2023-05-03T19:53:04;4.63;;;4.23;;
16177;SDS011;8195;51.220;9.746;2023-05-03T20:03:25;5.77;;;4.77;;
16177;SDS011;8195;51.220;9.746;2023-05-03T20:13:46;5.43;;;4.93;;
16177;SDS011;8195;51.220;9.746;2023-05-03T20:24:07;5.83;;;5.03;;
16177;SDS011;8195;51.220;9.746;2023-05-03T20:34:28;7.10;;;5.50;;
16177;SDS011;8195;51.220;9.746;2023-05-03T20:44:52;7.63;;;5.07;;
16177;SDS011;8195;51.220;9.746;2023-05-03T20:55:13;5.43;;;4.93;;
16177;SDS011;8195;51.220;9.746;2023-05-03T21:05:34;7.13;;;5.07;;
16177;SDS011;8195;51.220;9.746;2023-05-03T21:15:54;5.33;;;4.60;;
16177;SDS011;8195;51.220;9.746;2023-05-03T21:26:15;6.13;;;4.93;;
16177;SDS011;8195;51.220;9.746;2023-05-03T21:36:36;7.03;;;5.10;;
16177;SDS011;8195;51.220;9.746;2023-05-03T21:46:57;6.10;;;5.00;;
16177;SDS011;8195;51.220;9.746;2023-05-03T21:57:18;6.17;;;4.93;;
16177;SDS011;8195;51.220;9.746;2023-05-03T22:07:39;6.43;;;4.70;;
16177;SDS011;8195;51.220;9.746;2023-05-03T22:18:00;5.63;;;5.13;;
16177;SDS011;8195;51.220;9.746;2023-05-03T22:28:21;5.77;;;5.17;;
16177;SDS011;8195;51.220;9.746;2023-05-03T22:38:42;5.40;;;4.97;;
16177;SDS011;8195;51.220;9.746;2023-05-03T22:49:03;6.53;;;5.90;;
16177;SDS011;8195;51.220;9.746;2023-05-03T22:59:23;8.07;;;7.27;;
16177;SDS011;8195;51.220;9.746;2023-05-03T23:09:47;10.03;;;8.77;;
16177;SDS011;8195;51.220;9.746;2023-05-03T23:20:08;10.40;;;9.30;;
16177;SDS011;8195;51.220;9.746;2023-05-03T23:30:30;9.90;;;8.37;;
16177;SDS011;8195;51.220;9.746;2023-05-03T23:40:51;10.90;;;8.23;;
16177;SDS011;8195;51.220;9.746;2023-05-03T23:51:12;8.07;;;7.30;;
